Time,TemperatureF,DewpointF,PressureIn,WindDirection,WindDirectionDegrees,WindSpeedMPH,WindSpeedGustMPH,Humidity,HourlyPrecipIn,Conditions,Clouds,dailyrainin,SolarRadiationWatts/m^2,SoftwareType,DateUTC
2013-01-01 00:03:00,52.0,41.0,-100.00,WSW,250,3.0,10.0,65,0.00,,,0.00,0.000000,,2013-01-01 05:03:00,
2013-01-01 00:12:00,52.0,41.0,-100.00,WSW,250,3.0,10.0,65,0.00,,,0.00,0.000000,,2013-01-01 05:12:00,
2013-01-01 00:22:00,52.0,41.0,-100.00,WSW,250,3.0,10.0,65,0.00,,,0.00,0.000000,,2013-01-01 05:22:00,
2013-01-01 00:53:00,52.0,41.0,-100.00,WSW,243,4.0,9.0,65,0.00,,,0.00,0.000000,,2013-01-01 05:53:00,
2013-01-01 01:02:00,52.0,41.0,-100.00,WSW,243,4.0,9.0,65,0.00,,,0.00,0.000000,,2013-01-01 06:02:00,
2013-01-01 01:12:00,52.0,41.0,-100.00,WSW,243,4.0,9.0,65,0.00,,,0.00,0.000000,,2013-01-01 06:12:00,
2013-01-01 01:22:00,52.0,41.0,-100.00,WSW,243,4.0,9.0,65,0.00,,,0.00,0.000000,,2013-01-01 06:22:00,
2013-01-01 01:52:00,51.0,40.0,-100.00,WSW,252,2.0,9.0,66,0.00,,,0.00,0.000000,,2013-01-01 06:52:00,
2013-01-01 02:02:00,51.0,40.0,-100.00,WSW,252,2.0,9.0,66,0.00,,,0.00,0.000000,,2013-01-01 07:02:00,
2013-01-01 02:12:00,51.0,40.0,-100.00,WSW,252,2.0,9.0,66,0.00,,,0.00,0.000000,,2013-01-01 07:12:00,
2013-01-01 02:22:00,51.0,40.0,-100.00,WSW,252,2.0,9.0,66,0.00,,,0.00,0.000000,,2013-01-01 07:22:00,
2013-01-01 02:53:00,48.0,38.0,-100.00,West,265,3.0,6.0,68,0.00,,,0.00,0.000000,,2013-01-01 07:53:00,
2013-01-01 03:02:00,48.0,38.0,-100.00,West,265,3.0,6.0,68,0.00,,,0.00,0.000000,,2013-01-01 08:02:00,
2013-01-01 03:12:00,48.0,38.0,-100.00,West,265,3.0,6.0,68,0.00,,,0.00,0.000000,,2013-01-01 08:12:00,
2013-01-01 03:22:00,48.0,38.0,-100.00,West,265,3.0,6.0,68,0.00,,,0.00,0.000000,,2013-01-01 08:22:00,
2013-01-01 03:53:00,48.0,38.0,-100.00,West,260,3.0,7.0,67,0.00,,,0.00,0.000000,,2013-01-01 08:53:00,
2013-01-01 04:02:00,48.0,38.0,-100.00,West,260,3.0,7.0,67,0.00,,,0.00,0.000000,,2013-01-01 09:02:00,
2013-01-01 04:12:00,48.0,38.0,-100.00,West,260,3.0,7.0,67,0.00,,,0.00,0.000000,,2013-01-01 09:12:00,
2013-01-01 04:22:00,48.0,38.0,-100.00,West,260,3.0,7.0,67,0.00,,,0.00,0.000000,,2013-01-01 09:22:00,
2013-01-01 04:52:00,48.0,38.0,-100.00,West,272,2.0,6.0,68,0.00,,,0.00,0.000000,,2013-01-01 09:52:00,
2013-01-01 05:02:00,48.0,38.0,-100.00,West,272,2.0,6.0,68,0.00,,,0.00,0.000000,,2013-01-01 10:02:00,
2013-01-01 05:12:00,48.0,38.0,-100.00,West,272,2.0,6.0,68,0.00,,,0.00,0.000000,,2013-01-01 10:12:00,
2013-01-01 05:22:00,48.0,38.0,-100.00,West,272,2.0,6.0,68,0.00,,,0.00,0.000000,,2013-01-01 10:22:00,
2013-01-01 05:53:00,49.0,39.0,-100.00,WSW,240,2.0,5.0,67,0.00,,,0.00,0.000000,,2013-01-01 10:53:00,
2013-01-01 06:02:00,49.0,39.0,-100.00,WSW,240,2.0,5.0,67,0.00,,,0.00,0.000000,,2013-01-01 11:02:00,
2013-01-01 06:12:00,49.0,39.0,-100.00,WSW,240,2.0,5.0,67,0.00,,,0.00,0.000000,,2013-01-01 11:12:00,
2013-01-01 06:23:00,49.0,39.0,-100.00,WSW,240,2.0,5.0,67,0.00,,,0.00,0.000000,,2013-01-01 11:23:00,
2013-01-01 06:53:00,50.0,39.0,-100.00,WSW,255,2.0,6.0,66,0.00,,,-99.99,0.000000,,2013-01-01 11:53:00,
2013-01-01 07:03:00,50.0,39.0,-100.00,WSW,255,2.0,6.0,66,0.00,,,-99.99,0.000000,,2013-01-01 12:03:00,
2013-01-01 07:12:00,50.0,39.0,-100.00,WSW,255,2.0,6.0,66,0.00,,,-99.99,0.000000,,2013-01-01 12:12:00,
2013-01-01 07:22:00,50.0,39.0,-100.00,WSW,255,2.0,6.0,66,0.00,,,-99.99,0.000000,,2013-01-01 12:22:00,
2013-01-01 07:53:00,50.0,39.0,-100.00,WSW,255,2.0,5.0,67,0.00,,,0.00,0.000000,,2013-01-01 12:53:00,
2013-01-01 08:03:00,50.0,39.0,-100.00,WSW,255,2.0,5.0,67,0.00,,,0.00,0.000000,,2013-01-01 13:03:00,
2013-01-01 08:12:00,50.0,39.0,-100.00,WSW,255,2.0,5.0,67,0.00,,,0.00,0.000000,,2013-01-01 13:12:00,
2013-01-01 08:22:00,50.0,39.0,-100.00,WSW,255,2.0,5.0,67,0.00,,,0.00,0.000000,,2013-01-01 13:22:00,
2013-01-01 08:53:00,51.0,40.0,-100.00,West,266,2.0,5.0,66,0.00,,,0.00,11.000000,,2013-01-01 13:53:00,
2013-01-01 09:03:00,51.0,40.0,-100.00,West,266,2.0,5.0,66,0.00,,,0.00,11.000000,,2013-01-01 14:03:00,
2013-01-01 09:12:00,51.0,40.0,-100.00,West,266,2.0,5.0,66,0.00,,,0.00,11.000000,,2013-01-01 14:12:00,
2013-01-01 09:22:00,51.0,40.0,-100.00,West,266,2.0,5.0,66,0.00,,,0.00,11.000000,,2013-01-01 14:22:00,
2013-01-01 09:53:00,53.0,41.0,-100.00,WSW,257,3.0,8.0,64,0.00,,,0.00,43.000000,,2013-01-01 14:53:00,
2013-01-01 10:03:00,53.0,41.0,-100.00,WSW,257,3.0,8.0,64,0.00,,,0.00,43.000000,,2013-01-01 15:03:00,
2013-01-01 10:12:00,53.0,41.0,-100.00,WSW,257,3.0,8.0,64,0.00,,,0.00,43.000000,,2013-01-01 15:12:00,
2013-01-01 10:22:00,53.0,41.0,-100.00,WSW,257,3.0,8.0,64,0.00,,,0.00,43.000000,,2013-01-01 15:22:00,
2013-01-01 10:53:00,56.0,42.0,-100.00,West,265,4.0,10.0,60,0.00,,,0.00,116.000000,,2013-01-01 15:53:00,
2013-01-01 11:02:00,56.0,42.0,-100.00,West,265,4.0,10.0,60,0.00,,,0.00,116.000000,,2013-01-01 16:02:00,
2013-01-01 11:12:00,56.0,42.0,-100.00,West,265,4.0,10.0,60,0.00,,,0.00,116.000000,,2013-01-01 16:12:00,
2013-01-01 11:22:00,56.0,42.0,-100.00,West,265,4.0,10.0,60,0.00,,,0.00,116.000000,,2013-01-01 16:22:00,
2013-01-01 11:53:00,57.0,42.0,-100.00,West,262,4.0,11.0,57,0.00,,,0.00,132.000000,,2013-01-01 16:53:00,
2013-01-01 12:02:00,57.0,42.0,-100.00,West,262,4.0,11.0,57,0.00,,,0.00,132.000000,,2013-01-01 17:02:00,
2013-01-01 12:12:00,57.0,42.0,-100.00,West,262,4.0,11.0,57,0.00,,,0.00,132.000000,,2013-01-01 17:12:00,
2013-01-01 12:23:00,57.0,42.0,-100.00,West,262,4.0,11.0,57,0.00,,,0.00,132.000000,,2013-01-01 17:23:00,
2013-01-01 12:53:00,56.0,41.0,-100.00,WSW,253,4.0,12.0,58,0.00,,,0.00,131.000000,,2013-01-01 17:53:00,
2013-01-01 13:03:00,56.0,41.0,-100.00,WSW,253,4.0,12.0,58,0.00,,,0.00,131.000000,,2013-01-01 18:03:00,
2013-01-01 13:13:00,56.0,41.0,-100.00,WSW,253,4.0,12.0,58,0.00,,,0.00,131.000000,,2013-01-01 18:13:00,
2013-01-01 13:23:00,56.0,41.0,-100.00,WSW,253,4.0,12.0,58,0.00,,,0.00,131.000000,,2013-01-01 18:23:00,
2013-01-01 13:53:00,57.0,42.0,-100.00,SW,230,4.0,9.0,58,0.00,,,0.00,68.000000,,2013-01-01 18:53:00,
2013-01-01 14:02:00,57.0,42.0,-100.00,SW,230,4.0,9.0,58,0.00,,,0.00,68.000000,,2013-01-01 19:02:00,
2013-01-01 14:12:00,57.0,42.0,-100.00,SW,230,4.0,9.0,58,0.00,,,0.00,68.000000,,2013-01-01 19:12:00,
2013-01-01 14:22:00,57.0,42.0,-100.00,SW,230,4.0,9.0,58,0.00,,,0.00,68.000000,,2013-01-01 19:22:00,
2013-01-01 14:53:00,55.0,42.0,-100.00,SW,224,4.0,8.0,62,0.00,,,0.00,66.000000,,2013-01-01 19:53:00,
2013-01-01 15:02:00,55.0,42.0,-100.00,SW,224,4.0,8.0,62,0.00,,,0.00,66.000000,,2013-01-01 20:02:00,
2013-01-01 15:13:00,55.0,42.0,-100.00,SW,224,4.0,8.0,62,0.00,,,0.00,66.000000,,2013-01-01 20:13:00,
2013-01-01 15:23:00,55.0,42.0,-100.00,SW,224,4.0,8.0,62,0.00,,,0.00,66.000000,,2013-01-01 20:23:00,
2013-01-01 15:53:00,55.0,44.0,-100.00,WSW,238,4.0,11.0,66,0.00,,,0.00,42.000000,,2013-01-01 20:53:00,
2013-01-01 16:03:00,55.0,44.0,-100.00,WSW,238,4.0,11.0,66,0.00,,,0.00,42.000000,,2013-01-01 21:03:00,
2013-01-01 16:13:00,55.0,44.0,-100.00,WSW,238,4.0,11.0,66,0.00,,,0.00,42.000000,,2013-01-01 21:13:00,
2013-01-01 16:22:00,55.0,44.0,-100.00,WSW,238,4.0,11.0,66,0.00,,,0.00,42.000000,,2013-01-01 21:22:00,
2013-01-01 16:53:00,56.0,45.0,-100.00,WSW,253,5.0,12.0,66,0.00,,,0.00,24.000000,,2013-01-01 21:53:00,
2013-01-01 17:03:00,56.0,45.0,-100.00,WSW,253,5.0,12.0,66,0.00,,,0.00,24.000000,,2013-01-01 22:03:00,
2013-01-01 17:12:00,56.0,45.0,-100.00,WSW,253,5.0,12.0,66,0.00,,,0.00,24.000000,,2013-01-01 22:12:00,
2013-01-01 17:22:00,56.0,45.0,-100.00,WSW,253,5.0,12.0,66,0.00,,,0.00,24.000000,,2013-01-01 22:22:00,
2013-01-01 17:53:00,55.0,45.0,-100.00,West,261,3.0,17.0,68,0.00,,,0.00,4.000000,,2013-01-01 22:53:00,
2013-01-01 18:03:00,55.0,45.0,-100.00,West,261,3.0,17.0,68,0.00,,,0.00,4.000000,,2013-01-01 23:03:00,
2013-01-01 18:13:00,55.0,45.0,-100.00,West,261,3.0,17.0,68,0.00,,,0.00,4.000000,,2013-01-01 23:13:00,
2013-01-01 18:22:00,55.0,45.0,-100.00,West,261,3.0,17.0,68,0.00,,,0.00,4.000000,,2013-01-01 23:22:00,
2013-01-01 18:53:00,53.0,44.0,-100.00,SSW,192,1.0,7.0,71,0.00,,,0.00,0.000000,,2013-01-01 23:53:00,
2013-01-01 19:03:00,53.0,44.0,-100.00,SSW,192,1.0,7.0,71,0.00,,,0.00,0.000000,,2013-01-02 00:03:00,
2013-01-01 19:12:00,53.0,44.0,-100.00,SSW,192,1.0,7.0,71,0.00,,,0.00,0.000000,,2013-01-02 00:12:00,
2013-01-01 19:22:00,53.0,44.0,-100.00,SSW,192,1.0,7.0,71,0.00,,,0.00,0.000000,,2013-01-02 00:22:00,
2013-01-01 19:53:00,53.0,43.0,-100.00,WSW,237,3.0,7.0,70,0.00,,,0.00,0.000000,,2013-01-02 00:53:00,
2013-01-01 20:02:00,53.0,43.0,-100.00,WSW,237,3.0,7.0,70,0.00,,,0.00,0.000000,,2013-01-02 01:02:00,
2013-01-01 20:12:00,53.0,43.0,-100.00,WSW,237,3.0,7.0,70,0.00,,,0.00,0.000000,,2013-01-02 01:12:00,
2013-01-01 20:22:00,53.0,43.0,-100.00,WSW,237,3.0,7.0,70,0.00,,,0.00,0.000000,,2013-01-02 01:22:00,
2013-01-01 20:53:00,54.0,44.0,-100.00,WSW,246,3.0,7.0,70,0.00,,,0.00,0.000000,,2013-01-02 01:53:00,
2013-01-01 21:02:00,54.0,44.0,-100.00,WSW,246,3.0,7.0,70,0.00,,,0.00,0.000000,,2013-01-02 02:02:00,
2013-01-01 21:12:00,54.0,44.0,-100.00,WSW,246,3.0,7.0,70,0.00,,,0.00,0.000000,,2013-01-02 02:12:00,
2013-01-01 21:22:00,54.0,44.0,-100.00,WSW,246,3.0,7.0,70,0.00,,,0.00,0.000000,,2013-01-02 02:22:00,
2013-01-01 21:53:00,54.0,44.0,-100.00,WSW,244,4.0,9.0,70,0.00,,,0.00,0.000000,,2013-01-02 02:53:00,
2013-01-01 22:02:00,54.0,44.0,-100.00,WSW,244,4.0,9.0,70,0.00,,,0.00,0.000000,,2013-01-02 03:02:00,
2013-01-01 22:12:00,54.0,44.0,-100.00,WSW,244,4.0,9.0,70,0.00,,,0.00,0.000000,,2013-01-02 03:12:00,
2013-01-01 22:22:00,54.0,44.0,-100.00,WSW,244,4.0,9.0,70,0.00,,,0.00,0.000000,,2013-01-02 03:22:00,
2013-01-01 22:53:00,54.0,45.0,-100.00,WSW,241,3.0,7.0,71,0.00,,,0.00,0.000000,,2013-01-02 03:53:00,
2013-01-01 23:03:00,54.0,45.0,-100.00,WSW,241,3.0,7.0,71,0.00,,,0.00,0.000000,,2013-01-02 04:03:00,
2013-01-01 23:12:00,54.0,45.0,-100.00,WSW,241,3.0,7.0,71,0.00,,,0.00,0.000000,,2013-01-02 04:12:00,
2013-01-01 23:22:00,54.0,45.0,-100.00,WSW,241,3.0,7.0,71,0.00,,,0.00,0.000000,,2013-01-02 04:22:00,
2013-01-01 23:53:00,54.0,45.0,-100.00,WNW,295,3.0,7.0,71,0.00,,,0.00,0.000000,,2013-01-02 04:53:00,